createdAt,value
2023-04-15T00:02:08.385Z,15.00
2023-04-15T00:04:48.464Z,16.13
2023-04-15T00:07:42.323Z,15.23
2023-04-15T00:10:36.264Z,15.63
2023-04-15T00:13:30.271Z,15.60
2023-04-15T00:16:18.481Z,14.73
2023-04-15T00:18:51.831Z,14.93
2023-04-15T00:21:39.325Z,15.10
2023-04-15T00:24:12.489Z,13.57
2023-04-15T00:26:59.308Z,14.38
2023-04-15T00:29:33.388Z,15.05
2023-04-15T00:32:20.339Z,14.50
2023-04-15T00:34:53.809Z,14.98
2023-04-15T00:37:41.283Z,15.38
2023-04-15T00:40:26.325Z,15.30
2023-04-15T00:43:13.268Z,15.75
2023-04-15T00:45:47.437Z,14.43
2023-04-15T00:48:34.284Z,15.05
2023-04-15T00:51:07.680Z,15.27
2023-04-15T00:53:54.308Z,15.82
2023-04-15T00:56:35.309Z,15.05
2023-04-15T00:59:31.300Z,15.05
2023-04-15T01:02:18.503Z,13.23
2023-04-15T01:04:51.425Z,14.05
2023-04-15T01:07:45.297Z,15.15
2023-04-15T01:10:32.292Z,15.35
2023-04-15T01:13:12.297Z,13.95
2023-04-15T01:16:00.529Z,15.25
2023-04-15T01:18:41.321Z,15.70
2023-04-15T01:21:36.304Z,15.80
2023-04-15T01:24:25.343Z,14.88
2023-04-15T01:26:58.559Z,15.07
2023-04-15T01:29:46.308Z,14.48
2023-04-15T01:32:19.928Z,14.40
2023-04-15T01:35:24.319Z,14.50
2023-04-15T01:37:57.708Z,13.88
2023-04-15T01:40:44.302Z,14.57
2023-04-15T01:43:17.671Z,14.50
2023-04-15T01:46:04.310Z,14.52
2023-04-15T01:48:37.402Z,14.30
2023-04-15T01:51:24.325Z,15.68
2023-04-15T01:53:57.404Z,14.77
2023-04-15T01:56:44.317Z,15.27
2023-04-15T01:59:17.949Z,14.63
2023-04-15T02:02:04.347Z,14.55
2023-04-15T02:04:44.328Z,14.23
2023-04-15T02:07:39.320Z,14.63
2023-04-15T02:10:33.404Z,15.65
2023-04-15T02:13:20.326Z,13.75
2023-04-15T02:15:55.678Z,12.98
2023-04-15T02:18:42.456Z,14.57
2023-04-15T02:21:22.379Z,13.90
2023-04-15T02:24:16.386Z,13.52
2023-04-15T02:27:04.332Z,14.10
2023-04-15T02:29:38.450Z,14.95
2023-04-15T02:32:25.384Z,14.77
2023-04-15T02:34:58.446Z,12.98
2023-04-15T02:37:50.341Z,14.55
2023-04-15T02:40:24.537Z,14.85
2023-04-15T02:43:13.451Z,14.45
2023-04-15T02:45:47.102Z,14.35
2023-04-15T02:48:33.364Z,13.52
2023-04-15T02:51:30.361Z,14.27
2023-04-15T02:54:17.357Z,13.40
2023-04-15T02:56:50.842Z,14.20
2023-04-15T02:59:37.370Z,14.80
2023-04-15T03:02:10.646Z,15.25
2023-04-15T03:04:57.338Z,13.85
2023-04-15T03:07:30.558Z,14.13
2023-04-15T03:10:17.363Z,13.60
2023-04-15T03:12:50.835Z,14.10
2023-04-15T03:15:37.384Z,14.13
2023-04-15T03:18:10.453Z,14.32
2023-04-15T03:20:57.361Z,14.25
2023-04-15T03:23:30.486Z,15.27
2023-04-15T03:26:17.352Z,14.27
2023-04-15T03:28:57.356Z,14.15
2023-04-15T03:31:44.440Z,14.73
2023-04-15T03:34:23.378Z,14.98
2023-04-15T03:37:10.352Z,13.80
2023-04-15T03:39:43.496Z,15.57
2023-04-15T03:42:30.387Z,14.73
2023-04-15T03:45:07.649Z,14.55
2023-04-15T03:47:54.414Z,14.30
2023-04-15T03:50:34.377Z,15.48
2023-04-15T03:53:28.371Z,15.20
2023-04-15T03:56:15.373Z,14.85
2023-04-15T03:58:48.455Z,14.55
2023-04-15T04:01:35.470Z,13.90
2023-04-15T04:04:08.627Z,14.20
2023-04-15T04:07:02.389Z,13.35
2023-04-15T04:09:56.391Z,14.32
2023-04-15T04:12:43.352Z,13.35
2023-04-15T04:15:16.594Z,13.30
2023-04-15T04:18:03.658Z,12.68
2023-04-15T04:20:37.542Z,13.55
2023-04-15T04:23:24.383Z,14.18
2023-04-15T04:25:57.764Z,13.88
2023-04-15T04:28:46.410Z,13.55
2023-04-15T04:31:19.529Z,13.55
2023-04-15T04:34:06.478Z,13.70
2023-04-15T04:36:39.479Z,15.07
2023-04-15T04:39:26.378Z,13.77
2023-04-15T04:42:06.424Z,14.35
2023-04-15T04:45:00.380Z,13.50
2023-04-15T04:47:47.499Z,12.90
2023-04-15T04:50:20.554Z,13.82
2023-04-15T04:53:08.532Z,14.25
2023-04-15T04:55:48.500Z,13.63
2023-04-15T04:58:42.383Z,13.93
2023-04-15T05:01:29.471Z,14.77
2023-04-15T05:04:10.447Z,13.80
2023-04-15T05:07:04.398Z,13.75
2023-04-15T05:09:51.407Z,12.70
2023-04-15T05:12:24.513Z,13.32
2023-04-15T05:15:13.401Z,12.57
2023-04-15T05:17:46.728Z,13.55
2023-04-15T05:20:33.438Z,11.68
2023-04-15T05:23:13.390Z,11.95
2023-04-15T05:26:07.412Z,12.20
2023-04-15T05:29:01.686Z,11.73
2023-04-15T05:31:55.411Z,12.05
2023-04-15T05:34:42.410Z,12.43
2023-04-15T05:37:15.698Z,11.13
2023-04-15T05:40:03.438Z,11.68
2023-04-15T05:42:36.947Z,12.43
2023-04-15T05:45:23.438Z,11.13
2023-04-15T05:47:56.833Z,10.93
2023-04-15T05:50:43.400Z,11.65
2023-04-15T05:53:23.423Z,11.63
2023-04-15T05:56:17.411Z,11.18
2023-04-15T05:59:04.421Z,10.18
2023-04-15T06:01:37.576Z,10.75
2023-04-15T06:04:24.514Z,10.82
2023-04-15T06:06:57.897Z,11.43
2023-04-15T06:09:44.422Z,10.65
2023-04-15T06:12:17.520Z,10.70
2023-04-15T06:15:06.911Z,10.77
2023-04-15T06:17:47.542Z,11.32
2023-04-15T06:20:34.438Z,10.98
2023-04-15T06:23:07.549Z,10.80
2023-04-15T06:25:54.450Z,11.68
2023-04-15T06:28:27.533Z,11.60
2023-04-15T06:31:14.451Z,10.98
2023-04-15T06:33:50.708Z,10.90
2023-04-15T06:36:37.505Z,12.35
2023-04-15T06:39:17.433Z,12.05
2023-04-15T06:42:11.513Z,17.63
2023-04-15T06:44:58.448Z,15.35
2023-04-15T06:47:39.488Z,13.35
2023-04-15T06:50:33.450Z,12.75
2023-04-15T06:53:20.444Z,12.95
2023-04-15T06:56:00.425Z,13.13
2023-04-15T06:58:54.514Z,12.52
2023-04-15T07:01:48.457Z,11.90
2023-04-15T07:04:35.476Z,12.90
2023-04-15T07:07:09.490Z,11.85
2023-04-15T07:09:56.467Z,12.57
2023-04-15T07:12:36.451Z,11.98
2023-04-15T07:15:23.445Z,12.38
2023-04-15T07:18:03.524Z,12.80
2023-04-15T07:20:57.465Z,12.98
2023-04-15T07:23:44.463Z,13.10
2023-04-15T07:26:17.579Z,12.15
2023-04-15T07:29:04.469Z,12.07
2023-04-15T07:31:37.556Z,12.70
2023-04-15T07:34:25.455Z,12.75
2023-04-15T07:36:58.560Z,12.52
2023-04-15T07:39:45.486Z,12.48
2023-04-15T07:42:25.478Z,12.23
2023-04-15T07:45:19.461Z,11.90
2023-04-15T07:48:06.461Z,12.88
2023-04-15T07:50:42.910Z,12.45
2023-04-15T07:53:29.469Z,12.40
2023-04-15T07:56:02.577Z,13.63
2023-04-15T07:58:50.488Z,13.48
2023-04-15T08:01:23.579Z,12.73
2023-04-15T08:04:10.700Z,13.27
2023-04-15T08:06:51.469Z,13.10
2023-04-15T08:09:45.492Z,13.73
2023-04-15T08:12:39.456Z,14.18
2023-04-15T08:15:35.493Z,12.88
2023-04-15T08:18:22.483Z,13.90
2023-04-15T08:20:55.597Z,13.32
2023-04-15T08:23:42.487Z,13.63
2023-04-15T08:26:15.694Z,14.35
2023-04-15T08:29:02.754Z,14.82
2023-04-15T08:31:36.670Z,18.67
2023-04-15T08:34:23.495Z,15.57
2023-04-15T08:36:59.517Z,13.80
2023-04-15T08:39:56.476Z,14.65
2023-04-15T08:42:58.499Z,13.40
2023-04-15T08:45:52.509Z,16.25
2023-04-15T08:48:47.511Z,13.23
2023-04-15T08:51:35.498Z,14.75
2023-04-15T08:54:26.508Z,13.85
2023-04-15T08:57:25.496Z,14.73
2023-04-15T09:00:13.514Z,15.05
2023-04-15T09:02:47.706Z,13.32
2023-04-15T09:05:34.503Z,12.75
2023-04-15T09:08:08.674Z,14.50
2023-04-15T09:10:55.525Z,13.80
2023-04-15T09:13:35.521Z,14.20
2023-04-15T09:16:29.561Z,15.38
2023-04-15T09:19:37.524Z,13.05
2023-04-15T09:22:10.830Z,14.57
2023-04-15T09:24:57.502Z,13.90
2023-04-15T09:27:37.533Z,13.30
2023-04-15T09:30:31.614Z,12.90
2023-04-15T09:33:28.524Z,12.23
2023-04-15T09:36:15.499Z,13.48
2023-04-15T09:39:03.949Z,13.25
2023-04-15T09:41:51.533Z,12.63
2023-04-15T09:44:38.595Z,12.27
2023-04-15T09:47:38.566Z,13.68
2023-04-15T09:50:19.512Z,13.02
2023-04-15T09:53:16.559Z,13.52
2023-04-15T09:56:14.533Z,14.50
2023-04-15T09:59:10.537Z,13.00
2023-04-15T10:02:04.554Z,12.48
2023-04-15T10:04:52.579Z,15.00
2023-04-15T10:07:35.533Z,14.30
2023-04-15T10:10:30.536Z,13.52
2023-04-15T10:13:18.541Z,14.15
2023-04-15T10:15:57.700Z,16.23
2023-04-15T10:19:03.551Z,14.07
2023-04-15T10:21:45.184Z,12.23
2023-04-15T10:24:25.541Z,13.15
2023-04-15T10:27:06.559Z,11.63
2023-04-15T10:29:47.542Z,13.25
2023-04-15T10:32:41.667Z,12.57
2023-04-15T10:35:29.534Z,14.35
2023-04-15T10:38:09.569Z,16.10
2023-04-15T10:40:57.551Z,16.83
2023-04-15T10:43:33.637Z,15.43
2023-04-15T10:46:21.584Z,14.68
2023-04-15T10:49:07.548Z,13.20
2023-04-15T10:52:06.574Z,18.13
2023-04-15T10:54:54.554Z,15.45
2023-04-15T10:57:30.791Z,15.10
2023-04-15T11:00:20.570Z,14.07
2023-04-15T11:03:04.764Z,14.57
2023-04-15T11:05:59.575Z,15.38
2023-04-15T11:09:16.548Z,13.63
2023-04-15T11:12:23.576Z,14.93
2023-04-15T11:15:56.643Z,13.57
2023-04-15T11:18:50.571Z,13.75
2023-04-15T11:21:44.549Z,14.07
2023-04-15T11:24:38.576Z,12.52
2023-04-15T11:27:39.553Z,13.45
2023-04-15T11:30:31.568Z,13.02
2023-04-15T11:33:08.508Z,12.00
2023-04-15T11:35:55.569Z,11.55
2023-04-15T11:38:28.903Z,12.30
2023-04-15T11:41:15.559Z,11.68
2023-04-15T11:43:55.607Z,11.50
2023-04-15T11:46:49.580Z,10.98
2023-04-15T11:49:41.637Z,11.20
2023-04-15T11:52:17.673Z,11.20
2023-04-15T11:55:21.580Z,12.07
2023-04-15T11:58:35.595Z,11.40
2023-04-15T12:01:22.570Z,11.57
2023-04-15T12:04:04.366Z,11.88
2023-04-15T12:06:58.578Z,12.63
2023-04-15T12:09:52.609Z,13.07
2023-04-15T12:12:46.587Z,13.50
2023-04-15T12:15:33.572Z,13.57
2023-04-15T12:18:06.750Z,14.82
2023-04-15T12:20:53.597Z,15.25
2023-04-15T12:23:26.696Z,14.05
2023-04-15T12:26:13.572Z,13.45
2023-04-15T12:28:47.768Z,12.15
2023-04-15T12:31:34.631Z,12.65
2023-04-15T12:34:07.693Z,14.30
2023-04-15T12:36:54.606Z,14.13
2023-04-15T12:39:41.616Z,12.88
2023-04-15T12:42:35.612Z,14.57
2023-04-15T12:45:22.616Z,11.77
2023-04-15T12:48:02.607Z,13.55
2023-04-15T12:50:49.602Z,13.32
2023-04-15T12:53:29.596Z,13.98
2023-04-15T12:56:16.623Z,14.82
2023-04-15T12:58:56.618Z,13.23
2023-04-15T13:01:43.672Z,13.60
2023-04-15T13:04:24.844Z,13.15
2023-04-15T13:07:20.630Z,12.93
2023-04-15T13:10:14.651Z,11.20
2023-04-15T13:13:08.620Z,13.00
2023-04-15T13:16:02.662Z,13.63
2023-04-15T13:18:49.620Z,12.70
2023-04-15T13:21:22.781Z,14.35
2023-04-15T13:24:10.627Z,17.30
2023-04-15T13:26:43.989Z,15.68
2023-04-15T13:29:30.640Z,14.68
2023-04-15T13:32:04.554Z,11.85
2023-04-15T13:34:51.640Z,14.15
2023-04-15T13:37:34.620Z,13.77
2023-04-15T13:40:28.646Z,12.77
2023-04-15T13:43:22.626Z,13.18
2023-04-15T13:46:09.712Z,11.60
2023-04-15T13:48:42.791Z,13.73
2023-04-15T13:51:29.638Z,12.50
2023-04-15T13:54:03.024Z,11.48
2023-04-15T13:56:49.639Z,12.45
2023-04-15T13:59:29.645Z,14.10
2023-04-15T14:02:16.723Z,13.50
2023-04-15T14:04:49.866Z,13.65
2023-04-15T14:07:37.657Z,13.20
2023-04-15T14:10:18.669Z,12.68
2023-04-15T14:13:12.660Z,12.40
2023-04-15T14:15:59.648Z,13.70
2023-04-15T14:18:46.648Z,14.77
2023-04-15T14:21:38.657Z,12.45
2023-04-15T14:24:19.646Z,13.05
2023-04-15T14:27:14.660Z,12.63
2023-04-15T14:30:01.658Z,12.27
2023-04-15T14:32:42.667Z,12.55
2023-04-15T14:35:30.668Z,13.25
2023-04-15T14:38:10.995Z,15.55
2023-04-15T14:41:04.648Z,12.93
2023-04-15T14:43:58.658Z,11.32
2023-04-15T14:46:47.672Z,10.07
2023-04-15T14:49:21.012Z,10.75
2023-04-15T14:52:10.682Z,12.25
2023-04-15T14:54:43.776Z,11.95
2023-04-15T14:57:30.663Z,12.30
2023-04-15T15:00:03.865Z,12.82
2023-04-15T15:02:50.715Z,13.57
2023-04-15T15:05:30.999Z,12.35
2023-04-15T15:08:24.660Z,12.30
2023-04-15T15:11:14.680Z,10.95
2023-04-15T15:13:47.801Z,10.73
2023-04-15T15:16:35.695Z,11.23
2023-04-15T15:19:08.852Z,10.50
2023-04-15T15:21:55.717Z,10.70
2023-04-15T15:24:28.800Z,11.82
2023-04-15T15:27:15.684Z,9.88
2023-04-15T15:29:49.076Z,9.98
2023-04-15T15:32:35.758Z,10.68
2023-04-15T15:35:08.805Z,10.43
2023-04-15T15:37:55.702Z,9.77
2023-04-15T15:40:28.794Z,11.27
2023-04-15T15:43:15.690Z,10.30
2023-04-15T15:45:51.691Z,11.48
2023-04-15T15:48:38.684Z,10.57
2023-04-15T15:51:12.680Z,10.25
2023-04-15T15:53:59.695Z,10.77
2023-04-15T15:56:39.702Z,11.05
2023-04-15T15:59:33.690Z,11.27
2023-04-15T16:02:30.610Z,11.52
2023-04-15T16:05:20.718Z,12.57
2023-04-15T16:08:14.691Z,12.48
2023-04-15T16:11:08.709Z,14.35
2023-04-15T16:14:02.702Z,12.02
2023-04-15T16:16:49.820Z,13.07
2023-04-15T16:19:29.714Z,12.40
2023-04-15T16:22:23.711Z,12.07
2023-04-15T16:25:17.701Z,14.95
2023-04-15T16:28:14.730Z,14.07
2023-04-15T16:30:56.249Z,13.98
2023-04-15T16:33:42.709Z,12.35
2023-04-15T16:36:15.979Z,11.73
2023-04-15T16:39:02.988Z,11.82
2023-04-15T16:41:38.451Z,10.65
2023-04-15T16:44:24.727Z,11.13
2023-04-15T16:46:57.813Z,11.15
2023-04-15T16:49:44.759Z,11.13
2023-04-15T16:52:17.814Z,11.25
2023-04-15T16:55:04.700Z,11.07
2023-04-15T16:58:02.492Z,13.45
2023-04-15T17:00:44.721Z,16.75
2023-04-15T17:03:17.943Z,16.20
2023-04-15T17:06:04.723Z,14.05
2023-04-15T17:08:44.759Z,16.27
2023-04-15T17:11:38.717Z,14.55
2023-04-15T17:14:32.722Z,15.20
2023-04-15T17:17:31.139Z,15.70
2023-04-15T17:20:18.705Z,17.42
2023-04-15T17:22:59.722Z,18.23
2023-04-15T17:25:53.730Z,18.33
2023-04-15T17:28:47.782Z,15.02
2023-04-15T17:31:42.794Z,21.73
2023-04-15T17:34:49.743Z,28.98
2023-04-15T17:37:57.727Z,21.17
2023-04-15T17:40:57.785Z,25.05
2023-04-15T17:44:11.728Z,28.63
2023-04-15T17:47:18.746Z,30.60
2023-04-15T17:50:19.786Z,25.52
2023-04-15T17:53:33.787Z,29.75
2023-04-15T17:56:41.789Z,32.60
2023-04-15T17:59:41.791Z,31.45
2023-04-15T18:02:56.064Z,28.40
2023-04-15T18:06:02.719Z,28.95
2023-04-15T18:09:02.991Z,32.47
2023-04-15T18:12:12.742Z,24.05
2023-04-15T18:15:05.920Z,23.33
2023-04-15T18:18:12.735Z,24.23
2023-04-15T18:20:46.215Z,25.65
2023-04-15T18:23:33.786Z,24.33
2023-04-15T18:26:06.896Z,26.45
2023-04-15T18:28:53.787Z,25.35
2023-04-15T18:31:28.041Z,26.88
2023-04-15T18:34:14.823Z,27.13
2023-04-15T18:36:47.877Z,31.95
2023-04-15T18:39:34.818Z,30.02
2023-04-15T18:42:07.882Z,27.38
2023-04-15T18:44:55.799Z,26.40
2023-04-15T18:47:28.974Z,24.92
2023-04-15T18:50:15.792Z,26.67
2023-04-15T18:52:48.906Z,26.38
2023-04-15T18:55:37.790Z,37.75
2023-04-15T18:58:10.954Z,50.13
2023-04-15T19:00:57.833Z,33.58
2023-04-15T19:03:37.835Z,30.05
2023-04-15T19:06:31.792Z,30.48
2023-04-15T19:09:25.800Z,29.77
2023-04-15T19:12:19.797Z,30.52
2023-04-15T19:15:06.818Z,30.38
2023-04-15T19:17:46.866Z,30.60
2023-04-15T19:20:37.171Z,30.85
2023-04-15T19:23:11.889Z,34.38
2023-04-15T19:25:58.846Z,33.28
2023-04-15T19:28:31.968Z,31.25
2023-04-15T19:31:18.814Z,30.77
2023-04-15T19:33:58.835Z,30.65
2023-04-15T19:36:54.830Z,31.75
2023-04-15T19:39:48.816Z,32.47
2023-04-15T19:42:42.820Z,33.47
2023-04-15T19:45:36.894Z,33.90
2023-04-15T19:48:30.883Z,40.97
2023-04-15T19:51:17.804Z,39.42
2023-04-15T19:53:51.019Z,39.17
2023-04-15T19:56:37.829Z,39.17
2023-04-15T19:59:12.754Z,36.95
2023-04-15T20:01:59.955Z,38.85
2023-04-15T20:04:33.003Z,37.20
2023-04-15T20:07:19.816Z,36.55
2023-04-15T20:09:59.799Z,36.10
2023-04-15T20:12:54.845Z,33.13
2023-04-15T20:15:44.896Z,32.10
2023-04-15T20:18:17.927Z,33.25
2023-04-15T20:21:04.881Z,32.58
2023-04-15T20:23:38.317Z,27.92
2023-04-15T20:26:24.819Z,29.23
2023-04-15T20:28:57.965Z,29.98
2023-04-15T20:31:44.945Z,31.67
2023-04-15T20:34:18.136Z,31.00
2023-04-15T20:37:04.866Z,28.90
2023-04-15T20:39:40.340Z,27.17
2023-04-15T20:42:26.816Z,26.77
2023-04-15T20:44:59.975Z,24.40
2023-04-15T20:47:46.955Z,23.23
2023-04-15T20:50:20.031Z,23.38
2023-04-15T20:53:06.819Z,26.17
2023-04-15T20:55:39.993Z,26.75
2023-04-15T20:58:29.535Z,28.40
2023-04-15T21:01:03.060Z,29.75
2023-04-15T21:03:49.902Z,26.92
2023-04-15T21:06:29.828Z,27.83
2023-04-15T21:09:24.955Z,27.73
2023-04-15T21:12:11.848Z,29.33
2023-04-15T21:14:46.023Z,28.63
2023-04-15T21:17:32.867Z,28.70
2023-04-15T21:20:06.049Z,28.10
2023-04-15T21:22:52.901Z,28.33
2023-04-15T21:25:32.874Z,31.02
2023-04-15T21:28:29.537Z,31.83
2023-04-15T21:31:15.826Z,31.88
2023-04-15T21:33:49.172Z,33.90
2023-04-15T21:36:36.961Z,32.55
2023-04-15T21:39:11.135Z,30.45
2023-04-15T21:41:57.913Z,31.05
2023-04-15T21:44:33.993Z,32.08
2023-04-15T21:47:20.934Z,30.63
2023-04-15T21:49:53.980Z,30.65
2023-04-15T21:52:33.825Z,30.98
2023-04-15T21:55:13.894Z,31.08
2023-04-15T21:58:08.863Z,29.60
2023-04-15T22:00:55.830Z,31.13
2023-04-15T22:03:30.363Z,30.67
2023-04-15T22:06:16.865Z,30.92
2023-04-15T22:08:57.030Z,33.03
2023-04-15T22:11:52.881Z,30.67
2023-04-15T22:14:46.886Z,30.00
2023-04-15T22:17:33.933Z,28.55
2023-04-15T22:20:06.958Z,30.85
2023-04-15T22:22:56.871Z,30.50
2023-04-15T22:25:30.539Z,32.08
2023-04-15T22:28:16.885Z,28.77
2023-04-15T22:30:56.940Z,28.98
2023-04-15T22:33:50.875Z,30.20
2023-04-15T22:36:39.901Z,32.00
2023-04-15T22:39:12.964Z,30.23
2023-04-15T22:41:59.899Z,32.40
2023-04-15T22:44:32.958Z,31.20
2023-04-15T22:47:19.977Z,28.70
2023-04-15T22:49:52.999Z,26.33
2023-04-15T22:52:41.806Z,25.38
2023-04-15T22:55:21.896Z,24.55
2023-04-15T22:58:08.887Z,23.92
2023-04-15T23:00:41.975Z,25.08
2023-04-15T23:03:29.080Z,22.65
2023-04-15T23:06:02.051Z,24.48
2023-04-15T23:08:48.876Z,22.83
2023-04-15T23:11:28.937Z,24.48
2023-04-15T23:14:15.905Z,26.00
2023-04-15T23:16:55.891Z,24.98
2023-04-15T23:19:49.903Z,24.92
2023-04-15T23:22:36.895Z,23.40
2023-04-15T23:25:17.902Z,23.23
2023-04-15T23:28:11.916Z,22.45
2023-04-15T23:31:00.416Z,21.58
2023-04-15T23:33:40.906Z,21.77
2023-04-15T23:36:27.896Z,22.35
2023-04-15T23:39:08.057Z,23.75
2023-04-15T23:42:01.943Z,24.83
2023-04-15T23:44:48.861Z,23.92
2023-04-15T23:47:22.031Z,22.20
2023-04-15T23:50:08.920Z,22.30
2023-04-15T23:52:49.902Z,22.15
2023-04-15T23:55:39.902Z,24.58
2023-04-15T23:58:13.011Z,23.00
